Time;durP1;ratioP1;P1;durP2;ratioP2;P2;SDS_P1;SDS_P2;PMS_P1;PMS_P2;Temp;Humidity;BMP_temperature;BMP_pressure;BME280_temperature;BME280_humidity;BME280_pressure;Samples;Min_cycle;Max_cycle;Signal;HPM_P1;HPM_P2
2023/12/12 00:02:08;;;;;;;8.27;2.90;;;8.40;80.80;;;7.82;77.13;97299.88;5063319;28;20561;-72
2023/12/12 00:04:35;;;;;;;15.00;3.80;;;8.30;80.70;;;7.90;76.76;97306.84;5045599;28;20477;-73
2023/12/12 00:07:02;;;;;;;7.10;2.87;;;8.40;81.00;;;7.87;76.54;97316.16;5046772;28;21033;-72
2023/12/12 00:09:30;;;;;;;7.27;3.13;;;8.30;81.00;;;8.01;76.61;97319.59;5046610;28;20984;-73
2023/12/12 00:11:57;;;;;;;11.17;3.00;;;8.40;81.10;;;7.88;77.00;97315.13;5066110;28;20445;-74
2023/12/12 00:14:25;;;;;;;11.77;3.03;;;8.40;81.10;;;7.88;77.69;97319.66;5043025;28;20454;-73
2023/12/12 00:16:54;;;;;;;15.57;2.93;;;8.40;81.10;;;7.85;77.82;97320.94;5039259;28;20477;-72
2023/12/12 00:19:21;;;;;;;6.73;2.63;;;8.40;81.10;;;7.78;77.70;97309.38;5047175;28;20445;-74
2023/12/12 00:21:49;;;;;;;6.20;2.00;;;8.50;81.30;;;7.90;77.57;97329.19;5054990;28;20457;-73
2023/12/12 00:24:16;;;;;;;10.53;2.53;;;8.40;81.10;;;7.94;77.44;97324.22;5054972;28;20446;-72
2023/12/12 00:26:43;;;;;;;13.10;3.40;;;8.40;81.30;;;7.92;77.55;97327.09;5044224;28;20518;-73
2023/12/12 00:29:11;;;;;;;14.57;3.27;;;8.50;81.10;;;8.01;77.17;97335.75;5059871;28;20549;-72
2023/12/12 00:31:38;;;;;;;12.67;3.20;;;8.50;81.30;;;7.83;77.08;97316.81;5062067;28;20490;-73
2023/12/12 00:34:07;;;;;;;8.30;2.67;;;8.50;81.30;;;7.93;77.17;97333.31;5046604;28;20457;-71
2023/12/12 00:36:35;;;;;;;12.80;2.80;;;8.50;81.20;;;7.95;77.68;97336.63;5043437;28;20651;-72
2023/12/12 00:39:03;;;;;;;6.90;2.67;;;8.50;81.50;;;7.91;77.61;97341.59;5045452;28;20465;-72
2023/12/12 00:41:35;;;;;;;6.50;2.50;;;8.50;81.30;;;8.01;77.98;97356.44;5048037;28;20460;-72
2023/12/12 00:44:02;;;;;;;21.00;3.67;;;8.40;81.40;;;7.90;77.64;97349.88;5042002;28;21003;-73
2023/12/12 00:46:30;;;;;;;14.50;3.37;;;8.40;81.50;;;7.52;78.12;97292.34;5045953;28;20457;-73
2023/12/12 00:48:58;;;;;;;8.33;2.83;;;8.40;81.50;;;7.97;77.64;97363.31;5039384;28;20453;-73
2023/12/12 00:51:27;;;;;;;15.73;4.67;;;8.40;81.50;;;7.96;77.89;97358.94;5046672;28;20472;-73
2023/12/12 00:53:54;;;;;;;5.07;2.50;;;8.40;81.40;;;7.91;78.55;97352.34;5058576;28;20458;-73
2023/12/12 00:56:21;;;;;;;12.13;3.20;;;8.30;81.90;;;7.89;78.02;97346.38;5044063;28;20472;-74
2023/12/12 00:58:49;;;;;;;9.67;2.60;;;8.30;81.80;;;7.93;77.78;97344.06;5051562;28;20551;-72
2023/12/12 01:01:16;;;;;;;9.67;2.60;;;8.40;81.70;;;7.85;78.54;97341.63;5040722;28;20458;-73
2023/12/12 01:03:43;;;;;;;8.63;2.97;;;8.40;81.70;;;7.77;78.16;97326.56;5043995;28;20458;-73
2023/12/12 01:06:23;;;;;;;13.40;3.07;;;8.30;81.60;;;7.80;78.46;97340.41;5043027;28;20492;-72
2023/12/12 01:08:52;;;;;;;12.27;2.57;;;8.30;81.70;;;7.72;78.30;97343.31;5043900;28;20820;-72
2023/12/12 01:11:20;;;;;;;8.13;2.63;;;8.20;81.70;;;7.63;79.54;97355.38;5039759;28;20453;-74
2023/12/12 01:13:49;;;;;;;9.00;2.73;;;8.10;82.00;;;6.67;79.42;97221.53;5040153;28;20481;-73
2023/12/12 01:16:16;;;;;;;10.60;2.40;;;8.10;82.00;;;7.54;79.81;97357.47;5043332;28;20484;-73
2023/12/12 01:18:44;;;;;;;9.83;3.17;;;8.10;82.30;;;7.58;80.08;97356.00;5044487;28;21023;-74
2023/12/12 01:21:11;;;;;;;9.57;2.83;;;8.10;82.60;;;7.47;80.21;97356.66;5061042;28;20535;-74
2023/12/12 01:23:50;;;;;;;8.63;2.20;;;8.00;82.50;;;7.41;80.81;97354.84;5048534;28;20472;-74
2023/12/12 01:26:20;;;;;;;12.20;2.77;;;8.00;82.50;;;7.40;81.12;97350.50;5045073;28;20450;-73
2023/12/12 01:28:47;;;;;;;7.20;2.97;;;8.00;83.10;;;7.36;81.97;97356.28;5043287;28;20464;-72
2023/12/12 01:31:16;;;;;;;9.90;2.80;;;7.90;83.30;;;7.36;82.11;97363.53;5042417;28;20481;-73
2023/12/12 01:33:44;;;;;;;9.40;2.70;;;7.90;83.40;;;7.36;82.48;97350.91;5043336;28;20504;-73
2023/12/12 01:36:12;;;;;;;10.20;3.13;;;7.90;83.50;;;7.37;82.56;97351.72;5041988;28;20862;-74
2023/12/12 01:38:39;;;;;;;9.03;3.10;;;7.90;83.60;;;7.32;82.74;97346.97;5041842;28;20453;-71
2023/12/12 01:41:09;;;;;;;14.33;3.40;;;7.90;83.60;;;7.23;83.05;97353.63;5039597;28;20985;-73
2023/12/12 01:43:36;;;;;;;10.50;2.60;;;7.80;84.00;;;7.17;83.91;97346.41;5043926;28;20475;-72
2023/12/12 01:46:07;;;;;;;9.70;2.57;;;7.70;84.10;;;7.07;84.36;97360.28;5044036;28;20442;-72
2023/12/12 01:48:36;;;;;;;13.23;3.03;;;7.60;84.40;;;6.99;84.92;97358.63;5046678;28;20464;-74
2023/12/12 01:51:05;;;;;;;18.13;3.17;;;7.60;84.70;;;6.92;85.36;97355.13;5052903;28;20460;-73
2023/12/12 01:53:38;;;;;;;14.27;3.00;;;7.50;85.10;;;6.91;85.42;97356.16;5046103;28;20462;-76
2023/12/12 01:56:09;;;;;;;12.23;3.70;;;7.50;85.50;;;6.89;85.84;97351.00;5058920;28;20467;-74
2023/12/12 01:58:39;;;;;;;8.60;3.20;;;7.40;85.60;;;6.73;86.50;97356.78;5042991;28;20485;-74
2023/12/12 02:01:07;;;;;;;16.23;3.07;;;7.30;85.80;;;6.63;87.26;97363.38;5043602;28;20458;-73
2023/12/12 02:03:36;;;;;;;11.10;3.43;;;7.20;86.60;;;6.59;87.84;97356.78;5036736;28;20450;-71
2023/12/12 02:06:06;;;;;;;13.90;4.63;;;7.10;87.20;;;6.56;88.08;97357.22;5038708;28;20500;-73
2023/12/12 02:08:33;;;;;;;14.63;3.77;;;7.10;87.90;;;6.52;88.26;97353.25;5043553;28;20457;-72
2023/12/12 02:11:01;;;;;;;10.53;2.70;;;7.00;87.80;;;6.45;88.57;97347.91;5038433;28;20446;-73
2023/12/12 02:13:29;;;;;;;11.50;3.30;;;7.00;88.40;;;6.37;89.45;97337.38;5051476;28;21020;-72
2023/12/12 02:15:57;;;;;;;18.70;3.53;;;7.00;89.00;;;6.39;89.39;97346.03;5043869;28;20464;-74
2023/12/12 02:18:25;;;;;;;14.97;3.10;;;6.80;89.30;;;6.30;89.70;97326.63;5042398;28;20484;-74
2023/12/12 02:20:52;;;;;;;12.70;3.47;;;6.80;90.10;;;6.06;89.59;97320.81;5051114;28;20469;-73
2023/12/12 02:23:20;;;;;;;13.93;3.30;;;6.70;89.80;;;5.72;90.68;97276.19;5042512;28;20535;-74
2023/12/12 02:25:48;;;;;;;18.80;4.30;;;6.60;90.40;;;6.06;91.34;97325.34;5040655;28;20463;-72
2023/12/12 02:28:16;;;;;;;9.70;3.53;;;6.60;91.00;;;6.15;92.23;97340.25;5038351;28;20457;-73
2023/12/12 02:30:44;;;;;;;10.87;3.10;;;6.70;91.20;;;6.28;91.94;97346.63;5040951;28;20493;-73
2023/12/12 02:33:11;;;;;;;13.77;3.07;;;6.70;91.50;;;6.30;91.92;97336.56;5042294;28;20454;-74
2023/12/12 02:35:38;;;;;;;10.40;3.67;;;6.70;91.30;;;6.27;91.87;97331.56;5055400;28;20962;-72
2023/12/12 02:38:06;;;;;;;10.90;3.80;;;6.80;91.30;;;6.20;92.51;97343.13;5035428;28;20509;-72
2023/12/12 02:40:35;;;;;;;11.27;3.83;;;6.70;91.40;;;6.34;92.16;97337.78;5058108;28;20457;-72
2023/12/12 02:43:02;;;;;;;7.13;3.00;;;6.80;92.00;;;6.23;92.55;97340.03;5044675;28;20485;-72
2023/12/12 02:45:30;;;;;;;11.87;3.07;;;6.70;91.50;;;5.96;92.80;97299.72;5043713;28;20475;-72
2023/12/12 02:47:57;;;;;;;11.53;4.13;;;6.70;91.70;;;6.36;92.45;97335.72;5039132;28;20445;-72
2023/12/12 02:50:25;;;;;;;14.53;4.13;;;6.80;92.20;;;6.50;91.73;97332.00;5040278;28;20462;-71
2023/12/12 02:52:52;;;;;;;13.97;4.17;;;6.90;91.80;;;6.41;92.43;97343.97;5042188;28;20464;-73
2023/12/12 02:55:20;;;;;;;9.30;3.17;;;6.90;91.60;;;6.44;92.41;97322.09;5039708;28;20441;-72
2023/12/12 02:57:49;;;;;;;11.63;3.10;;;7.00;91.40;;;6.56;91.72;97327.69;5041256;28;20547;-73
2023/12/12 03:00:16;;;;;;;14.23;3.80;;;7.10;91.40;;;6.59;91.81;97329.09;5044281;28;20453;-74
2023/12/12 03:02:44;;;;;;;10.33;3.60;;;7.10;91.40;;;6.35;91.94;97296.50;5048427;28;20478;-73
2023/12/12 03:05:11;;;;;;;15.00;3.20;;;7.10;91.40;;;6.54;92.27;97331.59;5037853;28;20741;-72
2023/12/12 03:07:39;;;;;;;12.47;3.33;;;7.10;91.30;;;6.62;91.75;97328.72;5040268;28;20586;-73
2023/12/12 03:10:08;;;;;;;9.47;3.43;;;7.10;91.60;;;6.52;91.54;97304.94;5038109;28;20462;-71
2023/12/12 03:12:36;;;;;;;8.57;3.17;;;7.20;91.40;;;6.61;92.03;97321.69;5040919;28;20480;-72
2023/12/12 03:15:06;;;;;;;12.67;3.40;;;7.20;91.30;;;6.71;91.66;97321.28;5051896;28;20530;-72
2023/12/12 03:17:33;;;;;;;8.70;2.63;;;7.20;91.20;;;6.80;91.16;97309.28;5043488;28;21030;-73
2023/12/12 03:20:01;;;;;;;11.73;2.63;;;7.30;91.30;;;6.86;90.95;97313.81;5042262;28;20457;-73
2023/12/12 03:22:29;;;;;;;9.97;2.87;;;7.30;91.00;;;6.83;90.59;97318.78;5041397;28;20464;-74
2023/12/12 03:24:56;;;;;;;8.93;3.00;;;7.30;91.00;;;6.90;90.49;97324.94;5044849;28;20464;-74
2023/12/12 03:27:24;;;;;;;10.90;3.20;;;7.40;90.90;;;6.97;90.31;97315.03;5049927;28;20461;-72
2023/12/12 03:29:50;;;;;;;9.93;2.80;;;7.40;90.80;;;6.98;90.50;97322.06;5040342;28;20464;-72
2023/12/12 03:32:20;;;;;;;14.43;3.30;;;7.40;90.90;;;6.97;90.36;97316.88;5053358;28;20961;-73
2023/12/12 03:34:47;;;;;;;7.70;2.90;;;7.40;90.80;;;7.03;90.35;97324.13;5041069;28;20458;-72
2023/12/12 03:37:16;;;;;;;12.63;3.20;;;7.50;90.90;;;7.01;90.24;97316.25;5046031;28;20476;-72
2023/12/12 03:39:44;;;;;;;12.13;3.40;;;7.50;90.80;;;6.95;90.85;97320.59;5045699;28;20576;-72
2023/12/12 03:42:12;;;;;;;11.17;3.13;;;7.50;90.70;;;6.91;90.69;97299.78;5045071;28;20453;-74
2023/12/12 03:44:39;;;;;;;11.27;3.47;;;7.50;90.60;;;6.93;91.31;97338.78;5045940;28;20458;-72
2023/12/12 03:47:07;;;;;;;11.00;3.00;;;7.50;90.80;;;6.90;90.98;97333.00;5057495;28;20458;-72
2023/12/12 03:49:35;;;;;;;7.07;2.73;;;7.40;90.90;;;6.92;91.29;97333.66;5044210;28;20453;-72
2023/12/12 03:52:04;;;;;;;10.40;3.13;;;7.40;90.90;;;6.91;91.08;97327.44;5044458;28;20538;-73
2023/12/12 03:54:33;;;;;;;18.87;3.30;;;7.40;91.20;;;6.84;91.35;97336.53;5058828;28;21206;-73
2023/12/12 03:57:00;;;;;;;14.90;3.40;;;7.30;91.40;;;6.81;92.08;97343.13;5071396;28;20830;-72
2023/12/12 03:59:28;;;;;;;13.47;4.00;;;7.30;91.60;;;6.74;92.88;97337.78;5054087;28;20453;-72
2023/12/12 04:01:55;;;;;;;11.57;2.97;;;7.30;91.90;;;6.75;92.46;97344.81;5047216;28;20550;-73
2023/12/12 04:04:21;;;;;;;16.67;3.50;;;7.30;91.70;;;6.79;92.55;97338.00;5048671;28;20558;-72
2023/12/12 04:06:50;;;;;;;11.60;3.70;;;7.30;91.70;;;6.71;93.22;97340.06;5044639;28;20457;-73
2023/12/12 04:09:18;;;;;;;10.83;3.20;;;7.20;91.70;;;6.64;92.49;97323.97;5058864;28;20440;-74
2023/12/12 04:11:45;;;;;;;11.50;3.77;;;7.30;91.90;;;6.84;92.39;97334.69;5045813;28;20449;-73
2023/12/12 04:14:12;;;;;;;8.60;3.20;;;7.30;91.70;;;6.90;91.95;97330.31;5049333;28;20453;-73
2023/12/12 04:16:40;;;;;;;13.63;4.00;;;7.40;91.70;;;6.86;92.09;97332.63;5046181;28;20488;-72
2023/12/12 04:19:08;;;;;;;12.37;3.13;;;7.40;91.30;;;6.91;91.36;97329.31;5053005;28;20473;-72
2023/12/12 04:21:35;;;;;;;10.73;3.40;;;7.40;91.10;;;6.95;91.29;97330.53;5051434;28;20559;-72
2023/12/12 04:24:05;;;;;;;13.10;3.40;;;7.40;91.40;;;6.75;92.27;97334.09;5044649;28;21002;-73
2023/12/12 04:26:33;;;;;;;10.60;3.50;;;7.40;91.10;;;6.60;93.74;97330.78;5045607;28;20973;-72
2023/12/12 04:29:00;;;;;;;12.80;3.40;;;7.30;91.60;;;6.70;93.15;97335.72;5057853;28;20465;-72
2023/12/12 04:31:28;;;;;;;12.70;4.00;;;7.20;91.80;;;6.75;92.51;97331.41;5052101;28;20543;-72
2023/12/12 04:33:55;;;;;;;10.67;4.07;;;7.30;91.80;;;6.61;93.02;97329.75;5049419;28;20449;-72
2023/12/12 04:36:23;;;;;;;11.73;4.10;;;7.20;91.90;;;6.61;93.54;97332.44;5048648;28;20483;-73
2023/12/12 04:38:50;;;;;;;23.80;3.87;;;7.20;91.70;;;6.43;94.68;97330.34;5050898;28;20479;-70
2023/12/12 04:41:19;;;;;;;14.30;3.90;;;7.10;92.10;;;6.45;94.60;97323.75;5047111;28;21113;-72
2023/12/12 04:43:47;;;;;;;11.77;3.43;;;7.10;92.60;;;6.32;95.11;97334.47;5065681;28;20446;-71
2023/12/12 04:46:20;;;;;;;12.43;3.83;;;7.00;92.50;;;6.44;94.69;97322.09;5064742;28;20446;-72
2023/12/12 04:48:48;;;;;;;10.57;3.60;;;7.00;92.60;;;6.40;94.78;97325.41;5046590;28;20467;-73
2023/12/12 04:51:15;;;;;;;13.50;3.73;;;7.00;92.80;;;6.24;95.34;97335.50;5045225;28;20445;-71
2023/12/12 04:53:41;;;;;;;11.13;4.00;;;6.90;92.60;;;6.23;95.94;97337.34;5063344;28;20465;-73
2023/12/12 04:56:10;;;;;;;13.67;3.90;;;6.80;93.00;;;6.22;95.83;97335.69;5044299;28;20454;-71
2023/12/12 04:58:38;;;;;;;14.10;3.83;;;6.70;93.20;;;6.06;96.68;97330.72;5041776;28;21270;-73
2023/12/12 05:01:07;;;;;;;12.90;4.00;;;6.70;93.80;;;6.00;97.22;97332.31;5045019;28;20454;-72
2023/12/12 05:03:34;;;;;;;15.40;3.63;;;6.60;94.30;;;5.98;97.35;97346.97;5053209;28;20466;-72
2023/12/12 05:06:01;;;;;;;12.50;3.80;;;6.60;94.00;;;5.89;98.01;97340.94;5041725;28;20469;-73
2023/12/12 05:08:29;;;;;;;15.73;4.07;;;6.60;94.50;;;5.91;97.52;97345.09;5051716;28;20460;-73
2023/12/12 05:10:57;;;;;;;13.53;3.63;;;6.60;94.20;;;5.96;98.03;97337.25;5059144;28;20882;-71
2023/12/12 05:13:25;;;;;;;15.20;3.83;;;6.50;94.50;;;6.01;97.78;97334.00;5048021;28;20506;-71
2023/12/12 05:15:54;;;;;;;14.03;4.40;;;6.50;95.10;;;6.12;97.61;97331.78;5043885;28;20453;-71
2023/12/12 05:18:22;;;;;;;11.33;4.03;;;6.60;95.20;;;6.23;96.82;97331.97;5043048;28;20511;-71
2023/12/12 05:20:50;;;;;;;15.87;4.47;;;6.70;95.00;;;6.28;96.99;97327.84;5061221;28;20544;-72
2023/12/12 05:23:18;;;;;;;10.63;3.50;;;6.70;94.50;;;6.34;96.17;97333.22;5055496;28;20458;-71
2023/12/12 05:25:46;;;;;;;17.30;3.50;;;6.80;94.60;;;6.21;96.37;97334.06;5044955;28;20445;-72
2023/12/12 05:28:16;;;;;;;16.80;4.03;;;6.90;93.80;;;6.28;96.95;97320.66;5039762;28;20471;-71
2023/12/12 05:30:44;;;;;;;14.43;3.93;;;6.90;93.80;;;6.37;96.06;97313.22;5039925;28;20469;-73
2023/12/12 05:33:12;;;;;;;19.20;4.03;;;7.00;93.00;;;6.35;96.44;97309.91;5042999;28;20461;-73
2023/12/12 05:35:40;;;;;;;16.80;4.17;;;7.00;93.10;;;6.37;95.88;97306.00;5055848;28;20450;-72
2023/12/12 05:38:08;;;;;;;15.87;3.90;;;7.10;93.00;;;6.63;94.86;97327.69;5041405;28;20473;-69
2023/12/12 05:40:35;;;;;;;8.60;4.30;;;7.10;93.10;;;6.65;94.29;97323.75;5043119;28;21006;-68
2023/12/12 05:43:02;;;;;;;18.53;4.30;;;7.20;92.70;;;6.71;94.06;97332.81;5045730;28;20477;-70
2023/12/12 05:45:30;;;;;;;21.50;5.43;;;7.20;93.00;;;6.61;93.26;97308.28;5043169;28;20814;-70
2023/12/12 05:47:57;;;;;;;16.23;5.23;;;7.20;92.40;;;6.32;93.55;97264.72;5044860;28;20445;-69
2023/12/12 05:50:26;;;;;;;15.43;5.50;;;7.30;92.20;;;6.77;92.78;97318.59;5055862;28;20449;-69
2023/12/12 05:52:53;;;;;;;20.20;4.90;;;7.30;92.00;;;6.82;92.84;97327.88;5055931;28;20454;-68
2023/12/12 05:55:20;;;;;;;13.20;5.07;;;7.30;92.00;;;6.89;92.34;97331.38;5057881;28;20442;-69
2023/12/12 05:57:49;;;;;;;15.97;4.57;;;7.40;92.00;;;6.71;92.72;97311.34;5040543;28;20457;-69
2023/12/12 06:00:17;;;;;;;17.43;5.10;;;7.30;91.70;;;6.84;92.13;97325.78;5044519;28;20504;-70
2023/12/12 06:02:44;;;;;;;30.67;5.27;;;7.40;91.70;;;6.84;92.90;97325.78;5042681;28;20532;-70
2023/12/12 06:05:12;;;;;;;19.97;4.40;;;7.40;91.70;;;6.86;92.67;97324.56;5056337;28;20868;-68
2023/12/12 06:07:42;;;;;;;16.70;5.00;;;7.40;91.80;;;6.98;92.29;97327.44;5039213;28;20453;-70
2023/12/12 06:10:11;;;;;;;13.60;4.50;;;7.50;91.50;;;6.72;93.45;97333.66;5042948;28;20456;-69
2023/12/12 06:12:38;;;;;;;13.87;3.70;;;7.40;91.40;;;6.79;93.32;97329.94;5042284;28;20461;-69
2023/12/12 06:15:07;;;;;;;17.40;3.70;;;7.40;91.70;;;6.95;92.28;97327.84;5043003;28;20540;-69
2023/12/12 06:17:35;;;;;;;7.33;3.77;;;7.50;91.60;;;6.87;92.08;97333.44;5054606;28;20457;-70
2023/12/12 06:20:03;;;;;;;10.20;3.87;;;7.50;91.40;;;6.94;91.96;97332.38;5044432;28;20548;-70
2023/12/12 06:22:30;;;;;;;15.13;4.90;;;7.50;91.30;;;6.58;91.56;97247.78;5037528;28;20458;-70
2023/12/12 06:24:58;;;;;;;18.30;5.63;;;7.60;91.30;;;6.96;91.92;97326.81;5042321;28;20528;-70
2023/12/12 06:27:26;;;;;;;12.97;3.87;;;7.60;91.10;;;7.02;90.83;97317.91;5037525;28;20573;-70
2023/12/12 06:29:54;;;;;;;10.90;3.60;;;7.60;91.00;;;7.06;91.39;97326.38;5051168;28;20802;-68
2023/12/12 06:32:22;;;;;;;17.30;3.97;;;7.60;91.10;;;7.20;90.89;97313.72;5038454;28;20521;-69
2023/12/12 06:34:50;;;;;;;13.30;4.40;;;7.70;91.20;;;6.97;91.93;97296.25;5041100;28;20453;-73
2023/12/12 06:37:17;;;;;;;11.17;3.67;;;7.50;91.10;;;7.18;91.57;97315.81;5054175;28;20822;-72
2023/12/12 06:39:44;;;;;;;12.57;3.97;;;7.60;91.70;;;7.23;91.08;97321.41;5042656;28;20469;-73
2023/12/12 06:42:13;;;;;;;13.67;5.10;;;7.60;91.40;;;7.34;90.47;97309.97;5040926;28;20469;-71
2023/12/12 06:44:40;;;;;;;14.80;4.30;;;7.70;91.10;;;7.43;90.25;97315.13;5048424;28;21160;-73
2023/12/12 06:47:09;;;;;;;10.20;3.80;;;7.80;91.10;;;7.41;89.69;97309.94;5035674;28;20794;-72
2023/12/12 06:49:36;;;;;;;16.53;4.60;;;7.80;90.90;;;7.38;90.31;97310.38;5057792;28;20634;-74
2023/12/12 06:52:03;;;;;;;14.50;4.20;;;7.80;90.80;;;7.45;90.61;97315.72;5041187;28;20457;-74
2023/12/12 06:54:31;;;;;;;15.63;4.80;;;7.90;91.00;;;7.50;89.80;97318.59;5040730;28;20550;-75
2023/12/12 06:56:58;;;;;;;11.33;4.40;;;7.90;90.80;;;7.31;90.20;97304.22;5037922;28;20504;-73
2023/12/12 06:59:27;;;;;;;14.80;5.10;;;7.90;90.50;;;7.57;89.52;97314.03;5051874;28;20505;-75
2023/12/12 07:01:54;;;;;;;13.37;4.73;;;8.00;90.70;;;7.65;90.20;97313.78;5041344;28;20946;-73
2023/12/12 07:04:22;;;;;;;10.73;5.40;;;8.00;90.80;;;7.93;91.25;97307.22;5047313;28;20464;-71
2023/12/12 07:06:50;;;;;;;14.13;5.87;;;8.20;91.90;;;8.05;90.04;97309.22;5043231;28;20454;-74
2023/12/12 07:09:18;;;;;;;15.83;5.20;;;8.40;91.10;;;8.16;90.04;97308.56;5040947;28;20477;-80
2023/12/12 07:11:45;;;;;;;10.80;5.13;;;8.50;90.90;;;7.99;90.03;97312.81;5047052;28;20587;-76
2023/12/12 07:14:13;;;;;;;17.70;5.17;;;8.50;90.30;;;7.82;88.67;97302.56;5037312;28;20465;-75
2023/12/12 07:16:41;;;;;;;14.27;4.70;;;8.40;89.70;;;8.13;89.85;97298.22;5046958;28;20493;-72
2023/12/12 07:19:08;;;;;;;13.83;4.17;;;8.50;90.70;;;7.40;87.71;97235.75;5058962;28;20874;-80
2023/12/12 07:21:40;;;;;;;10.97;4.03;;;8.40;89.60;;;7.53;88.65;97296.69;5052067;28;20833;-71
2023/12/12 07:24:07;;;;;;;11.97;4.97;;;8.10;89.20;;;7.23;87.89;97235.41;5041032;28;20566;-70
2023/12/12 07:26:35;;;;;;;11.67;4.20;;;8.10;89.30;;;7.63;87.48;97296.22;5042051;28;20612;-71
2023/12/12 07:29:02;;;;;;;18.10;5.03;;;8.10;89.30;;;6.82;87.92;97193.63;5059210;28;20522;-73
2023/12/12 07:31:29;;;;;;;8.17;3.80;;;8.00;88.80;;;7.09;87.36;97227.41;5043538;28;20456;-70
2023/12/12 07:33:59;;;;;;;11.43;3.97;;;8.00;89.00;;;7.45;87.40;97294.22;5040378;28;20462;-70
2023/12/12 07:36:26;;;;;;;8.50;4.50;;;8.00;89.00;;;7.53;87.58;97285.94;5040287;28;20515;-72
2023/12/12 07:38:58;;;;;;;11.30;3.77;;;8.00;89.00;;;7.59;86.98;97290.44;5059324;28;20478;-72
2023/12/12 07:41:25;;;;;;;13.13;3.60;;;8.10;88.40;;;7.60;86.27;97292.09;5037203;28;20446;-71
2023/12/12 07:43:52;;;;;;;11.37;4.27;;;8.10;88.30;;;7.70;86.26;97285.44;5043250;28;20856;-71
2023/12/12 07:46:20;;;;;;;10.90;3.70;;;8.10;88.50;;;7.64;86.02;97279.88;5056739;28;20684;-71
2023/12/12 07:48:47;;;;;;;11.30;4.33;;;8.10;88.20;;;7.64;85.93;97282.56;5042207;28;20783;-73
2023/12/12 07:51:17;;;;;;;13.83;4.47;;;8.00;88.20;;;7.58;86.70;97287.97;5040973;28;20472;-72
2023/12/12 07:53:44;;;;;;;15.43;4.03;;;8.00;88.60;;;7.61;86.09;97296.44;5042784;28;20461;-73
2023/12/12 07:56:11;;;;;;;19.93;4.87;;;8.00;88.70;;;7.61;86.78;97293.75;5039478;28;20458;-75
2023/12/12 07:58:40;;;;;;;15.23;4.53;;;8.00;88.80;;;7.80;85.66;97294.69;5042842;28;21011;-77
2023/12/12 08:01:07;;;;;;;14.17;4.83;;;8.10;89.00;;;7.76;85.65;97284.56;5051982;28;20447;-72
2023/12/12 08:03:35;;;;;;;13.17;4.53;;;8.10;88.40;;;7.84;85.65;97284.34;5043370;28;21211;-73
2023/12/12 08:06:03;;;;;;;16.50;4.13;;;8.20;88.30;;;8.04;84.70;97275.31;5040089;28;20449;-75
2023/12/12 08:08:32;;;;;;;12.60;4.43;;;8.40;88.00;;;8.07;83.63;97274.88;5045052;28;20503;-75
2023/12/12 08:11:01;;;;;;;16.33;4.53;;;8.50;87.20;;;8.04;83.76;97270.75;5044304;28;20457;-74
2023/12/12 08:13:28;;;;;;;8.70;3.13;;;8.50;87.20;;;8.08;83.82;97271.97;5044316;28;20457;-76
2023/12/12 08:15:55;;;;;;;11.40;3.90;;;8.50;86.90;;;7.91;84.19;97271.66;5039766;28;20454;-76
2023/12/12 08:18:23;;;;;;;14.90;4.17;;;8.40;87.00;;;7.98;83.99;97273.50;5045325;28;20557;-78
2023/12/12 08:20:50;;;;;;;10.17;4.73;;;8.40;87.10;;;7.88;84.43;97272.09;5038524;28;20438;-73
2023/12/12 08:23:17;;;;;;;16.43;4.30;;;8.40;87.20;;;7.99;83.97;97272.44;5046156;28;20558;-75
2023/12/12 08:25:47;;;;;;;11.80;4.20;;;8.40;87.20;;;7.76;84.49;97257.69;5045984;28;20461;-76
2023/12/12 08:28:14;;;;;;;17.17;4.60;;;8.30;87.10;;;7.67;85.38;97280.50;5040496;28;20555;-74
2023/12/12 08:30:41;;;;;;;16.30;4.30;;;8.20;87.00;;;7.67;85.90;97275.13;5046452;28;20468;-75
2023/12/12 08:33:09;;;;;;;13.10;4.70;;;8.20;87.30;;;7.63;86.00;97291.66;5043786;28;20461;-74
2023/12/12 08:35:37;;;;;;;11.63;4.23;;;8.20;87.30;;;7.08;86.41;97206.97;5043582;28;20449;-78
2023/12/12 08:38:05;;;;;;;8.50;4.00;;;8.20;87.30;;;7.93;85.41;97276.81;5043740;28;20463;-74
2023/12/12 08:40:32;;;;;;;12.98;5.00;;;8.40;87.70;;;7.75;83.68;97202.25;5040883;28;20440;-74
2023/12/12 08:43:01;;;;;;;10.20;4.80;;;8.50;87.20;;;8.29;83.06;97271.81;5043556;28;20192;-72
2023/12/12 08:45:29;;;;;;;13.37;3.83;;;8.70;86.60;;;8.13;83.37;97274.00;5046754;28;20468;-72
2023/12/12 08:47:56;;;;;;;16.20;5.10;;;8.70;86.30;;;8.23;82.98;97268.13;5041919;28;20603;-71
2023/12/12 08:50:24;;;;;;;12.03;4.63;;;8.70;86.30;;;8.04;82.11;97214.25;5043793;28;20273;-73
2023/12/12 08:52:51;;;;;;;18.33;5.13;;;8.80;85.90;;;8.47;80.49;97242.25;5041012;28;20771;-75
2023/12/12 08:55:18;;;;;;;15.87;5.13;;;8.90;85.90;;;8.27;82.02;97253.19;5044016;28;20457;-76
2023/12/12 08:57:47;;;;;;;16.07;4.37;;;8.80;85.40;;;8.43;81.63;97246.44;5053409;28;20548;-73
2023/12/12 09:00:17;;;;;;;13.73;4.70;;;8.90;85.50;;;8.00;82.03;97220.28;5044189;28;20528;-74
2023/12/12 09:02:45;;;;;;;12.10;4.03;;;8.70;85.00;;;7.68;83.40;97196.13;5048373;28;20541;-74
2023/12/12 09:05:13;;;;;;;9.30;4.00;;;8.60;85.40;;;7.91;nan;97236.69;5045370;28;20479;-75
2023/12/12 09:07:40;;;;;;;10.97;4.00;;;8.50;85.50;;;7.79;83.62;97235.72;5045012;28;20568;-74
2023/12/12 09:10:09;;;;;;;17.67;3.97;;;8.40;85.60;;;7.64;83.72;97244.91;5046532;28;20468;-73
2023/12/12 09:12:36;;;;;;;9.50;3.23;;;8.30;85.50;;;7.48;84.23;97234.66;5044868;28;20486;-74
2023/12/12 09:15:05;;;;;;;11.83;3.57;;;8.20;85.70;;;7.46;84.55;97239.44;5047067;28;20535;-76
2023/12/12 09:17:34;;;;;;;8.83;3.03;;;8.10;86.00;;;7.41;85.27;97242.75;5056823;28;20458;-75
2023/12/12 09:20:01;;;;;;;15.37;3.90;;;7.90;86.30;;;7.26;85.57;97248.41;5049302;28;20524;-73
2023/12/12 09:22:29;;;;;;;10.13;3.70;;;7.90;86.50;;;7.43;85.49;97243.41;5051095;28;20519;-69
2023/12/12 09:24:56;;;;;;;13.40;4.77;;;7.90;86.80;;;6.98;84.87;97182.41;5043379;28;20457;-66
2023/12/12 09:27:24;;;;;;;10.10;3.50;;;7.90;86.50;;;7.60;84.55;97257.16;5043955;28;20599;-66
2023/12/12 09:29:51;;;;;;;12.53;3.60;;;8.00;86.60;;;7.91;82.77;97252.81;5056091;28;20461;-66
2023/12/12 09:32:18;;;;;;;13.90;4.00;;;8.30;86.30;;;7.89;82.10;97241.47;5043283;28;20473;-69
2023/12/12 09:34:47;;;;;;;9.90;3.60;;;8.40;85.60;;;8.04;81.71;97226.88;5046210;28;20452;-69
2023/12/12 09:37:14;;;;;;;8.83;3.67;;;8.50;85.50;;;8.31;81.41;97229.38;5042301;28;20839;-70
2023/12/12 09:39:43;;;;;;;11.00;3.40;;;8.70;85.20;;;8.44;79.84;97218.47;5045743;28;20568;-71
2023/12/12 09:42:14;;;;;;;13.33;3.80;;;8.80;84.60;;;8.57;79.27;97224.78;5047673;28;20445;-71
2023/12/12 09:44:46;;;;;;;4.97;3.00;;;8.90;84.00;;;8.33;77.80;97214.63;5039888;28;20523;-71
2023/12/12 09:47:14;;;;;;;10.73;3.00;;;9.00;83.30;;;7.82;79.34;97138.50;5036925;28;20473;-68
2023/12/12 09:49:43;;;;;;;11.50;2.80;;;8.90;83.40;;;8.47;79.36;97183.03;5042341;28;20461;-71
2023/12/12 09:52:13;;;;;;;24.03;3.30;;;8.90;83.60;;;8.65;78.25;97184.13;5060282;28;20456;-72
2023/12/12 09:54:41;;;;;;;4.00;2.87;;;9.10;83.30;;;8.61;77.27;97182.94;5045115;28;20468;-71
2023/12/12 09:57:11;;;;;;;5.83;2.60;;;9.20;82.80;;;8.69;77.60;97177.25;5053876;28;20866;-68
2023/12/12 09:59:40;;;;;;;10.30;2.73;;;9.20;83.10;;;8.83;78.27;97174.41;5039923;28;20479;-70
2023/12/12 10:02:09;;;;;;;6.00;2.60;;;9.40;83.50;;;8.65;77.42;97173.34;5036127;28;20467;-72
2023/12/12 10:04:37;;;;;;;8.17;3.20;;;9.30;82.40;;;8.58;77.76;97173.44;5039834;28;20457;-71
2023/12/12 10:07:06;;;;;;;7.70;2.83;;;9.20;82.50;;;8.61;77.97;97166.78;5038472;28;20462;-74
2023/12/12 10:09:34;;;;;;;4.93;2.23;;;9.20;82.70;;;8.47;77.42;97172.28;5040179;28;20869;-75
2023/12/12 10:12:01;;;;;;;6.90;2.20;;;9.10;82.20;;;8.42;78.12;97171.28;5049229;28;20463;-75
2023/12/12 10:14:39;;;;;;;12.63;2.40;;;9.00;82.30;;;8.39;78.07;97174.44;5054617;28;20458;-75
2023/12/12 10:17:10;;;;;;;6.10;2.43;;;9.00;82.40;;;8.54;77.43;97174.09;5039713;28;20561;-75
2023/12/12 10:19:38;;;;;;;9.23;2.70;;;9.10;82.60;;;8.38;77.75;97172.78;5038520;28;20469;-72
2023/12/12 10:22:07;;;;;;;6.97;2.43;;;9.10;82.30;;;8.20;78.66;97188.66;5040994;28;20945;-75
2023/12/12 10:24:36;;;;;;;7.90;3.00;;;8.90;82.40;;;8.52;78.37;97195.03;5038784;28;20465;-75
2023/12/12 10:27:03;;;;;;;6.93;2.83;;;9.00;82.60;;;8.67;77.40;97186.59;5041278;28;20453;-79
2023/12/12 10:29:32;;;;;;;10.10;3.03;;;9.20;82.40;;;8.56;77.22;97167.44;5041085;28;20768;-80
2023/12/12 10:31:59;;;;;;;6.17;3.00;;;9.20;82.20;;;8.36;78.03;97148.78;5057233;28;20830;-79